Time;durP1;ratioP1;P1;durP2;ratioP2;P2;SDS_P1;SDS_P2;PMS_P1;PMS_P2;Temp;Humidity;BMP_temperature;BMP_pressure;BME280_temperature;BME280_humidity;BME280_pressure;Samples;Min_cycle;Max_cycle;Signal;HPM_P1;HPM_P2
2023/10/26 00:00:45;;;;;;;8.10;6.40;;;;;;;;;;5133465;27;20448;-75
2023/10/26 00:03:13;;;;;;;7.90;6.47;;;;;;;;;;5125231;27;20441;-75
2023/10/26 00:05:40;;;;;;;10.87;7.13;;;;;;;;;;5133650;27;20457;-75
2023/10/26 00:08:07;;;;;;;10.23;7.00;;;;;;;;;;5126901;27;20786;-75
2023/10/26 00:10:34;;;;;;;8.47;6.10;;;;;;;;;;5123077;27;20540;-75
2023/10/26 00:13:02;;;;;;;6.43;5.50;;;;;;;;;;5127800;27;20848;-75
2023/10/26 00:15:29;;;;;;;9.57;6.50;;;;;;;;;;5122385;28;20530;-75
2023/10/26 00:17:57;;;;;;;7.50;6.30;;;;;;;;;;5128598;28;20453;-75
2023/10/26 00:20:24;;;;;;;7.47;6.57;;;;;;;;;;5130017;28;20448;-75
2023/10/26 00:22:52;;;;;;;9.30;6.70;;;;;;;;;;5133361;28;20480;-75
2023/10/26 00:25:19;;;;;;;9.77;6.63;;;;;;;;;;5125290;28;20965;-75
2023/10/26 00:27:46;;;;;;;11.00;7.20;;;;;;;;;;5125030;28;20942;-75
2023/10/26 00:30:13;;;;;;;8.50;7.00;;;;;;;;;;5125778;28;20504;-75
2023/10/26 00:32:41;;;;;;;9.90;7.40;;;;;;;;;;5132423;28;20469;-75
2023/10/26 00:35:10;;;;;;;9.33;7.40;;;;;;;;;;5133360;28;20457;-75
2023/10/26 00:37:37;;;;;;;7.90;6.90;;;;;;;;;;5133307;28;20455;-74
2023/10/26 00:40:04;;;;;;;11.90;8.30;;;;;;;;;;5133203;28;20459;-75
2023/10/26 00:42:31;;;;;;;18.97;8.67;;;;;;;;;;5124707;28;20472;-75
2023/10/26 00:44:58;;;;;;;11.53;9.90;;;;;;;;;;5133357;28;20462;-75
2023/10/26 00:47:26;;;;;;;9.20;8.20;;;;;;;;;;5133007;28;20946;-75
2023/10/26 00:49:54;;;;;;;9.40;7.57;;;;;;;;;;5128413;28;20492;-75
2023/10/26 00:52:23;;;;;;;10.73;6.73;;;;;;;;;;5129390;28;20484;-76
2023/10/26 00:54:50;;;;;;;7.73;6.93;;;;;;;;;;5125222;27;20823;-76
2023/10/26 00:57:19;;;;;;;9.13;5.97;;;;;;;;;;5124749;28;20453;-76
2023/10/26 00:59:46;;;;;;;5.90;4.83;;;;;;;;;;5129740;28;20944;-76
2023/10/26 01:02:15;;;;;;;5.23;4.33;;;;;;;;;;5128220;28;20517;-75
2023/10/26 01:04:42;;;;;;;9.37;4.03;;;;;;;;;;5124555;27;20460;-75
2023/10/26 01:07:09;;;;;;;8.10;5.00;;;;;;;;;;5124539;28;20449;-75
2023/10/26 01:09:38;;;;;;;5.77;4.63;;;;;;;;;;5133672;27;20492;-75
2023/10/26 01:12:05;;;;;;;6.60;4.60;;;;;;;;;;5136809;27;20895;-75
2023/10/26 01:14:32;;;;;;;6.20;4.00;;;;;;;;;;5128264;27;20445;-75
2023/10/26 01:16:59;;;;;;;5.53;4.17;;;;;;;;;;5131410;27;20449;-75
2023/10/26 01:19:40;;;;;;;8.17;4.17;;;;;;;;;;5133551;27;20445;-75
2023/10/26 01:22:09;;;;;;;3.43;3.00;;;;;;;;;;5136565;27;20468;-75
2023/10/26 01:24:36;;;;;;;4.23;3.27;;;;;;;;;;5136712;27;20817;-74
2023/10/26 01:27:04;;;;;;;4.43;2.83;;;;;;;;;;5130532;27;20457;-74
2023/10/26 01:29:31;;;;;;;4.40;3.13;;;;;;;;;;5133832;27;20484;-74
2023/10/26 01:31:58;;;;;;;2.50;2.10;;;;;;;;;;5136395;27;20989;-75
2023/10/26 01:34:26;;;;;;;4.00;2.63;;;;;;;;;;5127390;27;20454;-74
2023/10/26 01:36:53;;;;;;;2.73;2.30;;;;;;;;;;5128747;27;21006;-75
2023/10/26 01:39:21;;;;;;;3.10;2.80;;;;;;;;;;5136216;27;20444;-75
2023/10/26 01:41:48;;;;;;;4.70;3.00;;;;;;;;;;5123918;27;20473;-75
2023/10/26 01:44:16;;;;;;;2.53;2.00;;;;;;;;;;5131655;27;20458;-75
2023/10/26 01:46:43;;;;;;;2.33;2.13;;;;;;;;;;5127551;27;20950;-74
2023/10/26 01:49:10;;;;;;;2.07;1.80;;;;;;;;;;5129064;27;20498;-74
2023/10/26 01:51:37;;;;;;;2.63;2.00;;;;;;;;;;5134437;27;20477;-74
2023/10/26 01:54:04;;;;;;;2.97;2.67;;;;;;;;;;5136060;27;20456;-75
2023/10/26 01:56:33;;;;;;;3.40;2.07;;;;;;;;;;5135895;27;20865;-74
2023/10/26 01:59:00;;;;;;;3.47;2.43;;;;;;;;;;5130418;27;20944;-74
2023/10/26 02:01:27;;;;;;;3.43;2.20;;;;;;;;;;5133024;27;21090;-75
2023/10/26 02:03:54;;;;;;;2.00;1.80;;;;;;;;;;5131206;27;20461;-75
2023/10/26 02:06:21;;;;;;;3.53;1.80;;;;;;;;;;5132131;27;20457;-74
2023/10/26 02:08:48;;;;;;;3.00;1.83;;;;;;;;;;5135353;27;20463;-75
2023/10/26 02:11:16;;;;;;;3.63;2.10;;;;;;;;;;5127916;27;20470;-75
2023/10/26 02:13:44;;;;;;;3.83;1.83;;;;;;;;;;5135368;27;20449;-75
2023/10/26 02:16:13;;;;;;;2.10;1.70;;;;;;;;;;5127096;27;20449;-75
2023/10/26 02:18:41;;;;;;;2.00;1.70;;;;;;;;;;5124162;27;20461;-75
2023/10/26 02:21:08;;;;;;;3.30;2.03;;;;;;;;;;5129313;27;20477;-75
2023/10/26 02:23:36;;;;;;;4.30;1.70;;;;;;;;;;5127031;27;20453;-74
2023/10/26 02:26:03;;;;;;;5.53;2.37;;;;;;;;;;5135389;27;20469;-75
2023/10/26 02:28:30;;;;;;;7.53;2.07;;;;;;;;;;5126885;27;20453;-75
2023/10/26 02:30:58;;;;;;;2.97;1.70;;;;;;;;;;5121706;27;20490;-74
2023/10/26 02:33:25;;;;;;;2.50;1.63;;;;;;;;;;5123490;27;20458;-74
2023/10/26 02:35:52;;;;;;;2.10;1.90;;;;;;;;;;5126659;27;20491;-75
2023/10/26 02:38:19;;;;;;;2.90;1.77;;;;;;;;;;5135086;27;20453;-75
2023/10/26 02:40:46;;;;;;;3.57;1.63;;;;;;;;;;5134932;27;20463;-74
2023/10/26 02:43:13;;;;;;;2.57;1.50;;;;;;;;;;5126399;27;20452;-75
2023/10/26 02:45:41;;;;;;;3.50;1.70;;;;;;;;;;5134953;27;20569;-75
2023/10/26 02:48:09;;;;;;;2.67;1.60;;;;;;;;;;5126664;27;20440;-75
2023/10/26 02:50:36;;;;;;;2.00;1.67;;;;;;;;;;5132682;27;20489;-75
2023/10/26 02:53:04;;;;;;;3.23;1.50;;;;;;;;;;5128798;27;20457;-75
2023/10/26 02:55:31;;;;;;;3.73;1.70;;;;;;;;;;5126172;27;20454;-75
2023/10/26 02:57:58;;;;;;;3.80;1.80;;;;;;;;;;5134865;27;20466;-75
2023/10/26 03:00:26;;;;;;;6.47;2.40;;;;;;;;;;5125932;27;20455;-74
2023/10/26 03:02:53;;;;;;;2.10;1.90;;;;;;;;;;5134615;27;20465;-74
2023/10/26 03:05:21;;;;;;;2.73;1.73;;;;;;;;;;5126246;27;20449;-74
2023/10/26 03:07:48;;;;;;;1.80;1.50;;;;;;;;;;5134676;27;20459;-75
2023/10/26 03:10:15;;;;;;;2.13;1.70;;;;;;;;;;5134642;27;20502;-74
2023/10/26 03:12:45;;;;;;;2.10;1.90;;;;;;;;;;5134772;27;21008;-75
2023/10/26 03:15:12;;;;;;;3.33;2.33;;;;;;;;;;5134528;27;20509;-75
2023/10/26 03:17:39;;;;;;;15.00;2.40;;;;;;;;;;5125937;27;20449;-75
2023/10/26 03:20:08;;;;;;;2.70;2.00;;;;;;;;;;5134036;27;20461;-75
2023/10/26 03:22:37;;;;;;;2.37;1.70;;;;;;;;;;5125887;27;20534;-74
2023/10/26 03:25:04;;;;;;;2.30;1.90;;;;;;;;;;5134405;27;20817;-74
2023/10/26 03:27:32;;;;;;;1.87;1.67;;;;;;;;;;5132716;27;20492;-74
2023/10/26 03:29:59;;;;;;;3.40;2.33;;;;;;;;;;5127250;27;20583;-74
2023/10/26 03:32:26;;;;;;;3.70;2.20;;;;;;;;;;5125307;27;20860;-75
2023/10/26 03:34:53;;;;;;;3.00;1.70;;;;;;;;;;5133722;27;20448;-74
2023/10/26 03:37:20;;;;;;;1.70;1.40;;;;;;;;;;5134058;27;20471;-74
2023/10/26 03:39:49;;;;;;;3.20;1.63;;;;;;;;;;5125535;27;20454;-74
2023/10/26 03:42:16;;;;;;;2.17;1.90;;;;;;;;;;5125278;27;20473;-74
2023/10/26 03:44:43;;;;;;;2.73;1.60;;;;;;;;;;5133717;27;20448;-74
2023/10/26 03:47:10;;;;;;;3.10;1.83;;;;;;;;;;5127247;27;20454;-74
2023/10/26 03:49:37;;;;;;;2.13;1.50;;;;;;;;;;5123694;27;20489;-75
2023/10/26 03:52:05;;;;;;;1.40;1.17;;;;;;;;;;5133760;27;20476;-74
2023/10/26 03:54:32;;;;;;;2.40;2.10;;;;;;;;;;5125267;27;20453;-75
2023/10/26 03:57:00;;;;;;;2.27;1.70;;;;;;;;;;5128917;27;20450;-75
2023/10/26 03:59:27;;;;;;;2.70;1.97;;;;;;;;;;5122052;27;20940;-75
2023/10/26 04:01:55;;;;;;;2.10;1.90;;;;;;;;;;5120542;27;20473;-75
2023/10/26 04:04:22;;;;;;;2.80;2.50;;;;;;;;;;5129943;27;20451;-75
2023/10/26 04:06:49;;;;;;;2.00;1.80;;;;;;;;;;5125581;27;20452;-74
2023/10/26 04:09:16;;;;;;;2.77;1.93;;;;;;;;;;5133366;27;20954;-74
2023/10/26 04:11:44;;;;;;;4.20;2.30;;;;;;;;;;5133371;27;20478;-74
2023/10/26 04:14:13;;;;;;;3.27;2.17;;;;;;;;;;5125022;27;20452;-74
2023/10/26 04:16:40;;;;;;;4.20;2.07;;;;;;;;;;5124985;27;20452;-74
2023/10/26 04:19:07;;;;;;;7.60;3.70;;;;;;;;;;5133214;28;20448;-74
2023/10/26 04:21:34;;;;;;;8.83;4.30;;;;;;;;;;5131579;28;20498;-75
2023/10/26 04:24:03;;;;;;;5.73;3.53;;;;;;;;;;5127447;28;20444;-74
2023/10/26 04:26:30;;;;;;;14.63;13.10;;;;;;;;;;5125058;27;20957;-74
2023/10/26 04:28:57;;;;;;;13.87;12.57;;;;;;;;;;5124997;28;20872;-74
2023/10/26 04:31:26;;;;;;;7.97;7.17;;;;;;;;;;5133084;28;20503;-74
2023/10/26 04:33:53;;;;;;;7.87;7.13;;;;;;;;;;5133468;28;20456;-74
2023/10/26 04:36:21;;;;;;;9.83;8.93;;;;;;;;;;5133357;28;20459;-75
2023/10/26 04:38:48;;;;;;;8.30;7.47;;;;;;;;;;5133147;28;20449;-74
2023/10/26 04:41:15;;;;;;;4.30;3.87;;;;;;;;;;5124702;28;20466;-74
2023/10/26 04:43:42;;;;;;;3.70;2.90;;;;;;;;;;5130585;28;20491;-74
2023/10/26 04:46:09;;;;;;;3.33;3.03;;;;;;;;;;5131186;27;20465;-75
2023/10/26 04:48:38;;;;;;;3.40;3.10;;;;;;;;;;5128659;27;20536;-74
2023/10/26 04:51:05;;;;;;;5.10;3.63;;;;;;;;;;5121449;27;20488;-75
2023/10/26 04:53:32;;;;;;;6.13;3.00;;;;;;;;;;5133816;27;20954;-74
2023/10/26 04:55:59;;;;;;;3.40;3.07;;;;;;;;;;5137463;27;20445;-74
2023/10/26 04:58:26;;;;;;;6.00;3.30;;;;;;;;;;5137277;27;20456;-74
2023/10/26 05:00:53;;;;;;;3.33;2.50;;;;;;;;;;5128982;27;20527;-74
2023/10/26 05:03:21;;;;;;;2.40;2.20;;;;;;;;;;5128933;27;20464;-75
2023/10/26 05:05:49;;;;;;;5.10;4.40;;;;;;;;;;5131649;27;20535;-74
2023/10/26 05:08:16;;;;;;;11.80;4.17;;;;;;;;;;5128396;27;20452;-74
2023/10/26 05:10:43;;;;;;;5.67;3.77;;;;;;;;;;5136897;27;20496;-75
2023/10/26 05:13:11;;;;;;;6.67;5.23;;;;;;;;;;5136942;27;20460;-75
2023/10/26 05:15:38;;;;;;;5.43;4.00;;;;;;;;;;5136650;27;20452;-75
2023/10/26 05:18:06;;;;;;;7.77;4.70;;;;;;;;;;5136900;27;20527;-75
2023/10/26 05:20:33;;;;;;;6.40;5.37;;;;;;;;;;5136694;27;20445;-75
2023/10/26 05:23:02;;;;;;;5.40;3.30;;;;;;;;;;5136527;27;20469;-75
2023/10/26 05:25:30;;;;;;;3.33;3.03;;;;;;;;;;5127606;27;21201;-74
2023/10/26 05:27:57;;;;;;;2.30;2.10;;;;;;;;;;5128220;27;20464;-75
2023/10/26 05:30:24;;;;;;;3.67;2.90;;;;;;;;;;5128251;27;20494;-74
2023/10/26 05:32:51;;;;;;;3.57;3.17;;;;;;;;;;5136450;27;20485;-75
2023/10/26 05:35:19;;;;;;;3.70;2.93;;;;;;;;;;5128453;27;20462;-74
2023/10/26 05:37:46;;;;;;;2.50;2.30;;;;;;;;;;5132785;27;20453;-74
2023/10/26 05:40:15;;;;;;;3.83;2.93;;;;;;;;;;5124160;27;20795;-74
2023/10/26 05:42:42;;;;;;;3.70;2.77;;;;;;;;;;5126934;27;20469;-75
2023/10/26 05:45:10;;;;;;;4.57;2.53;;;;;;;;;;5136579;27;20484;-75
2023/10/26 05:47:37;;;;;;;3.83;2.90;;;;;;;;;;5135969;27;20460;-75
2023/10/26 05:50:04;;;;;;;2.73;2.40;;;;;;;;;;5130125;27;20497;-75
2023/10/26 05:52:31;;;;;;;3.47;2.60;;;;;;;;;;5132290;27;20478;-75
2023/10/26 05:55:00;;;;;;;5.90;3.07;;;;;;;;;;5126449;27;20693;-74
2023/10/26 05:57:28;;;;;;;3.50;3.20;;;;;;;;;;5133773;27;20461;-74
2023/10/26 05:59:55;;;;;;;6.90;5.50;;;;;;;;;;5134910;27;20841;-74
2023/10/26 06:02:22;;;;;;;8.33;5.40;;;;;;;;;;5134687;27;20487;-74
2023/10/26 06:04:50;;;;;;;4.20;3.63;;;;;;;;;;5122841;27;20449;-75
2023/10/26 06:07:17;;;;;;;4.73;3.93;;;;;;;;;;5130465;27;20882;-75
2023/10/26 06:09:44;;;;;;;4.53;4.10;;;;;;;;;;5131446;27;20450;-75
2023/10/26 06:12:12;;;;;;;4.80;3.97;;;;;;;;;;5129257;27;20511;-75
2023/10/26 06:14:40;;;;;;;5.70;4.10;;;;;;;;;;5125940;27;20492;-74
2023/10/26 06:17:07;;;;;;;5.17;4.10;;;;;;;;;;5135181;27;20448;-74
2023/10/26 06:19:35;;;;;;;6.10;4.40;;;;;;;;;;5132574;27;20463;-75
2023/10/26 06:22:02;;;;;;;4.13;3.73;;;;;;;;;;5119761;27;20540;-74
2023/10/26 06:24:29;;;;;;;4.90;4.40;;;;;;;;;;5125783;27;20464;-75
2023/10/26 06:26:56;;;;;;;11.13;7.47;;;;;;;;;;5126005;27;20444;-75
2023/10/26 06:29:24;;;;;;;7.67;4.60;;;;;;;;;;5134354;27;20807;-75
2023/10/26 06:31:52;;;;;;;7.90;6.00;;;;;;;;;;5134438;27;20510;-75
2023/10/26 06:34:19;;;;;;;8.17;6.00;;;;;;;;;;5134486;27;20566;-74
2023/10/26 06:36:46;;;;;;;6.20;4.27;;;;;;;;;;5134381;27;20973;-75
2023/10/26 06:39:13;;;;;;;8.23;5.30;;;;;;;;;;5134118;27;20536;-75
2023/10/26 06:41:41;;;;;;;5.00;4.43;;;;;;;;;;5122850;27;20465;-74
2023/10/26 06:44:08;;;;;;;10.33;6.93;;;;;;;;;;5128545;27;20935;-75
2023/10/26 06:46:35;;;;;;;8.00;6.63;;;;;;;;;;5133767;27;20464;-75
2023/10/26 06:49:03;;;;;;;7.00;6.40;;;;;;;;;;5134094;27;20471;-74
2023/10/26 06:51:30;;;;;;;6.50;5.77;;;;;;;;;;5132515;27;20536;-75
2023/10/26 06:53:58;;;;;;;5.70;5.10;;;;;;;;;;5127227;27;20448;-74
2023/10/26 06:56:25;;;;;;;5.17;4.50;;;;;;;;;;5134262;27;20813;-74
2023/10/26 06:58:52;;;;;;;3.80;3.10;;;;;;;;;;5132619;27;20452;-74
2023/10/26 07:01:19;;;;;;;4.40;2.97;;;;;;;;;;5134012;27;20468;-74
2023/10/26 07:03:46;;;;;;;7.53;2.80;;;;;;;;;;5133764;27;20535;-74
2023/10/26 07:06:15;;;;;;;2.83;2.50;;;;;;;;;;5133940;27;20524;-74
2023/10/26 07:08:42;;;;;;;3.47;2.40;;;;;;;;;;5133728;27;20455;-74
2023/10/26 07:11:09;;;;;;;2.13;1.90;;;;;;;;;;5133842;27;20496;-74
2023/10/26 07:13:36;;;;;;;2.10;1.60;;;;;;;;;;5133578;27;20452;-74
2023/10/26 07:16:04;;;;;;;4.90;3.37;;;;;;;;;;5133758;27;20551;-75
2023/10/26 07:18:31;;;;;;;4.07;3.57;;;;;;;;;;5134012;27;20448;-75
2023/10/26 07:20:58;;;;;;;4.80;3.23;;;;;;;;;;5133374;27;20449;-74
2023/10/26 07:23:27;;;;;;;6.93;2.80;;;;;;;;;;5133918;27;20453;-74
2023/10/26 07:25:54;;;;;;;2.77;2.10;;;;;;;;;;5133416;27;20967;-74
2023/10/26 07:28:21;;;;;;;3.23;2.93;;;;;;;;;;5133600;27;20444;-74
2023/10/26 07:30:50;;;;;;;6.70;4.33;;;;;;;;;;5133379;27;20484;-74
2023/10/26 07:33:19;;;;;;;5.90;4.57;;;;;;;;;;5133627;27;20950;-75
2023/10/26 07:35:50;;;;;;;6.87;3.90;;;;;;;;;;5133226;27;20488;-74
2023/10/26 07:38:17;;;;;;;3.67;2.87;;;;;;;;;;5133312;27;20456;-74
2023/10/26 07:40:50;;;;;;;3.30;2.80;;;;;;;;;;5133221;27;20528;-75
2023/10/26 07:43:17;;;;;;;3.30;2.50;;;;;;;;;;5133286;27;20940;-74
2023/10/26 07:45:45;;;;;;;3.70;3.10;;;;;;;;;;5133278;27;20461;-75
2023/10/26 07:48:12;;;;;;;4.63;2.43;;;;;;;;;;5133457;27;20789;-75
2023/10/26 07:50:39;;;;;;;4.73;2.10;;;;;;;;;;5132966;27;20973;-75
2023/10/26 07:53:06;;;;;;;3.80;2.17;;;;;;;;;;5133080;27;20455;-75
2023/10/26 07:55:33;;;;;;;3.47;2.30;;;;;;;;;;5133070;27;20457;-74
2023/10/26 07:58:02;;;;;;;4.33;2.50;;;;;;;;;;5132804;27;20488;-74
2023/10/26 08:00:29;;;;;;;3.03;1.63;;;;;;;;;;5132704;27;20453;-74
2023/10/26 08:02:56;;;;;;;3.30;1.47;;;;;;;;;;5132822;27;20475;-75
2023/10/26 08:05:23;;;;;;;4.73;2.43;;;;;;;;;;5132916;27;20828;-74
2023/10/26 08:07:52;;;;;;;2.87;2.40;;;;;;;;;;5132868;27;20453;-74
2023/10/26 08:10:19;;;;;;;2.93;2.60;;;;;;;;;;5132580;27;20460;-75
2023/10/26 08:12:46;;;;;;;4.53;3.20;;;;;;;;;;5129281;27;20492;-74
2023/10/26 08:15:15;;;;;;;8.30;3.60;;;;;;;;;;5124560;27;20956;-74
2023/10/26 08:17:42;;;;;;;3.50;2.77;;;;;;;;;;5130557;28;20882;-74
2023/10/26 08:20:09;;;;;;;5.07;2.93;;;;;;;;;;5135558;27;20956;-75
2023/10/26 08:22:37;;;;;;;4.53;2.97;;;;;;;;;;5138413;27;20543;-74
2023/10/26 08:25:04;;;;;;;3.03;2.50;;;;;;;;;;5138556;27;20459;-74
2023/10/26 08:27:32;;;;;;;2.30;2.10;;;;;;;;;;5137901;27;20452;-74
2023/10/26 08:29:59;;;;;;;4.43;2.30;;;;;;;;;;5138181;27;20452;-74
2023/10/26 08:32:28;;;;;;;9.07;6.47;;;;;;;;;;5137956;27;20488;-74
2023/10/26 08:34:55;;;;;;;7.83;5.10;;;;;;;;;;5137998;27;20452;-74
2023/10/26 08:37:22;;;;;;;3.20;2.63;;;;;;;;;;5138147;27;20556;-75
2023/10/26 08:39:49;;;;;;;4.63;2.90;;;;;;;;;;5121486;27;20456;-74
2023/10/26 08:42:17;;;;;;;3.07;2.20;;;;;;;;;;5137890;27;20472;-74
2023/10/26 08:44:44;;;;;;;3.87;3.13;;;;;;;;;;5120906;27;20975;-75
2023/10/26 08:50:31;;;;;;;2.97;2.20;;;;;;;;;;5088789;28;20482;-74
2023/10/26 08:52:58;;;;;;;2.80;2.00;;;;;;;;;;5136707;27;20487;-75
2023/10/26 08:55:27;;;;;;;1.77;1.30;;;;;;;;;;5137852;27;20458;-75
2023/10/26 08:57:54;;;;;;;4.00;2.23;;;;;;;;;;5137992;27;20934;-75
2023/10/26 09:00:21;;;;;;;4.00;1.77;;;;;;;;;;5138375;27;20921;-74
2023/10/26 09:02:50;;;;;;;2.90;2.20;;;;;;;;;;5129843;27;20465;-74
2023/10/26 09:05:17;;;;;;;3.83;3.30;;;;;;;;;;5137799;27;20440;-75
2023/10/26 09:07:45;;;;;;;5.87;3.33;;;;;;;;;;5138158;27;20500;-75
2023/10/26 09:10:13;;;;;;;7.23;5.50;;;;;;;;;;5138038;27;20807;-74
2023/10/26 09:12:40;;;;;;;5.53;3.77;;;;;;;;;;5137529;27;20488;-74
2023/10/26 09:15:08;;;;;;;4.07;3.43;;;;;;;;;;5137720;27;20444;-75
2023/10/26 09:17:35;;;;;;;3.00;2.40;;;;;;;;;;5137881;27;20450;-74
2023/10/26 09:20:16;;;;;;;4.30;1.93;;;;;;;;;;5129160;27;20488;-74
2023/10/26 09:22:43;;;;;;;3.87;1.63;;;;;;;;;;5137657;27;20863;-74
2023/10/26 09:25:13;;;;;;;3.80;1.40;;;;;;;;;;5138191;27;20462;-74
2023/10/26 09:27:40;;;;;;;2.40;1.57;;;;;;;;;;5137887;27;20467;-75
2023/10/26 09:30:08;;;;;;;4.67;1.60;;;;;;;;;;5137523;27;20458;-74
2023/10/26 09:32:36;;;;;;;3.07;2.40;;;;;;;;;;5134140;27;20998;-74
2023/10/26 09:35:03;;;;;;;3.20;1.90;;;;;;;;;;5134635;27;20452;-75
2023/10/26 09:37:31;;;;;;;3.30;2.07;;;;;;;;;;5134251;27;20459;-74
2023/10/26 09:39:58;;;;;;;2.00;1.60;;;;;;;;;;5134343;27;20463;-74
2023/10/26 09:42:28;;;;;;;1.60;1.37;;;;;;;;;;5133541;27;20471;-74
2023/10/26 09:44:55;;;;;;;7.47;1.50;;;;;;;;;;5134372;27;20451;-74
2023/10/26 09:47:23;;;;;;;3.80;2.20;;;;;;;;;;5134286;27;20811;-74
2023/10/26 09:49:50;;;;;;;2.43;2.23;;;;;;;;;;5113612;28;20460;-75
2023/10/26 09:52:17;;;;;;;4.80;3.07;;;;;;;;;;5129560;27;20547;-75
2023/10/26 09:54:45;;;;;;;4.03;2.87;;;;;;;;;;5134267;27;20503;-75
2023/10/26 09:59:52;;;;;;;1.93;1.33;;;;;;;;;;5026801;28;20486;-75
2023/10/26 10:02:20;;;;;;;1.70;1.20;;;;;;;;;;5043453;28;20469;-74
2023/10/26 10:04:48;;;;;;;2.70;1.63;;;;;;;;;;5049425;28;20449;-74
2023/10/26 10:07:17;;;;;;;2.20;1.57;;;;;;;;;;5050461;28;20449;-75
2023/10/26 10:10:08;;;;;;;3.60;1.40;;;;;;;;;;5050467;28;20452;-75
2023/10/26 10:12:36;;;;;;;4.00;2.10;;;;;;;;;;5059835;28;20499;-76
2023/10/26 10:15:06;;;;;;;2.70;2.20;;;;;;;;;;5050579;28;20543;-76
2023/10/26 10:17:52;;;;;;;1.80;1.60;;;;;;;;;;5050075;28;20465;-76
2023/10/26 10:20:29;;;;;;;1.87;1.40;;;;;;;;;;5050743;28;20823;-76
2023/10/26 10:22:58;;;;;;;2.40;1.50;;;;;;;;;;5042903;28;20468;-76
2023/10/26 10:25:53;;;;;;;4.20;2.20;;;;;;;;;;5050538;28;20461;-75
2023/10/26 10:28:21;;;;;;;5.20;3.37;;;;;;;;;;5050013;28;20892;-75
2023/10/26 10:30:51;;;;;;;10.60;3.93;;;;;;;;;;5050082;28;20453;-76
2023/10/26 10:33:23;;;;;;;8.47;5.30;;;;;;;;;;5050292;28;20522;-75
2023/10/26 10:35:53;;;;;;;4.63;2.80;;;;;;;;;;5050111;28;20444;-76
2023/10/26 10:38:24;;;;;;;2.50;2.07;;;;;;;;;;5050519;28;20449;-75
2023/10/26 10:41:16;;;;;;;4.07;1.90;;;;;;;;;;5049528;28;20457;-76
2023/10/26 10:43:44;;;;;;;1.90;1.60;;;;;;;;;;5048240;28;21005;-75
2023/10/26 10:46:17;;;;;;;2.40;1.60;;;;;;;;;;5049851;28;20453;-75
2023/10/26 10:49:11;;;;;;;3.20;1.37;;;;;;;;;;5050284;28;20449;-75
2023/10/26 10:51:39;;;;;;;4.97;2.90;;;;;;;;;;5073182;28;20500;-75
2023/10/26 10:54:07;;;;;;;6.00;2.67;;;;;;;;;;5050108;28;20453;-76
2023/10/26 10:56:38;;;;;;;5.23;2.77;;;;;;;;;;5049877;28;20448;-76
2023/10/26 10:59:16;;;;;;;11.30;5.13;;;;;;;;;;5049632;28;20465;-76
2023/10/26 11:01:45;;;;;;;3.43;2.30;;;;;;;;;;5049113;27;20974;-76
2023/10/26 11:04:13;;;;;;;4.03;2.00;;;;;;;;;;5050349;27;20922;-76
2023/10/26 11:06:45;;;;;;;8.53;3.17;;;;;;;;;;5050016;28;20453;-76
2023/10/26 11:09:24;;;;;;;5.03;3.10;;;;;;;;;;5049642;28;20453;-75
2023/10/26 11:11:52;;;;;;;5.20;2.83;;;;;;;;;;5059499;27;21070;-76
2023/10/26 11:14:20;;;;;;;2.77;2.20;;;;;;;;;;5132609;27;20448;-75
2023/10/26 11:16:49;;;;;;;2.80;1.80;;;;;;;;;;5119064;27;20475;-75
2023/10/26 11:19:16;;;;;;;1.80;1.50;;;;;;;;;;5048139;28;20449;-75
2023/10/26 11:21:43;;;;;;;4.47;2.10;;;;;;;;;;5048085;28;20556;-75
2023/10/26 11:24:10;;;;;;;2.43;1.60;;;;;;;;;;5048705;28;21005;-76
2023/10/26 11:26:37;;;;;;;2.60;1.87;;;;;;;;;;5048410;27;20456;-75
2023/10/26 11:29:05;;;;;;;3.77;1.90;;;;;;;;;;5047848;28;20484;-76
2023/10/26 11:31:36;;;;;;;3.20;2.20;;;;;;;;;;5048208;27;20483;-76
2023/10/26 11:34:08;;;;;;;3.40;1.93;;;;;;;;;;5047677;28;20468;-75
2023/10/26 11:36:35;;;;;;;2.23;1.40;;;;;;;;;;5048304;28;20463;-75
2023/10/26 11:39:03;;;;;;;2.47;1.20;;;;;;;;;;5047849;28;20448;-75
2023/10/26 11:41:30;;;;;;;2.30;1.60;;;;;;;;;;5047965;28;20723;-76
2023/10/26 11:43:58;;;;;;;2.37;1.40;;;;;;;;;;5048650;28;20453;-76
2023/10/26 11:46:31;;;;;;;2.23;1.47;;;;;;;;;;5048724;28;20887;-75
2023/10/26 11:48:59;;;;;;;1.80;1.33;;;;;;;;;;5048255;28;20475;-76
2023/10/26 11:51:29;;;;;;;2.43;1.50;;;;;;;;;;5049102;27;20493;-75
2023/10/26 11:53:56;;;;;;;2.00;1.80;;;;;;;;;;5048115;27;20497;-76
2023/10/26 11:56:23;;;;;;;1.93;1.57;;;;;;;;;;5048875;28;20453;-76
2023/10/26 11:58:50;;;;;;;4.50;1.53;;;;;;;;;;5039545;28;20472;-75
2023/10/26 12:01:17;;;;;;;1.50;1.30;;;;;;;;;;5048896;27;20484;-75
2023/10/26 12:03:45;;;;;;;1.70;1.37;;;;;;;;;;5049430;28;20457;-74
2023/10/26 12:06:13;;;;;;;2.27;1.50;;;;;;;;;;5049196;28;20441;-75
2023/10/26 12:08:41;;;;;;;1.70;1.40;;;;;;;;;;5048808;28;21062;-75
2023/10/26 12:11:09;;;;;;;2.13;1.50;;;;;;;;;;5049083;27;21051;-75
2023/10/26 12:13:36;;;;;;;2.07;1.40;;;;;;;;;;5049102;28;20496;-75
2023/10/26 12:16:04;;;;;;;1.53;1.27;;;;;;;;;;5048682;28;20479;-75
2023/10/26 12:18:32;;;;;;;4.07;2.40;;;;;;;;;;5048450;28;21029;-75
2023/10/26 12:21:00;;;;;;;3.70;2.50;;;;;;;;;;5048670;28;20459;-75
2023/10/26 12:23:27;;;;;;;4.03;2.90;;;;;;;;;;5048752;28;20452;-75
2023/10/26 12:25:56;;;;;;;3.00;2.23;;;;;;;;;;5048767;28;20460;-76
2023/10/26 12:28:23;;;;;;;2.60;1.83;;;;;;;;;;5048505;28;20469;-76
2023/10/26 12:30:50;;;;;;;2.03;1.60;;;;;;;;;;5048685;28;20460;-76
2023/10/26 12:33:17;;;;;;;4.83;2.70;;;;;;;;;;5048306;28;20492;-76
2023/10/26 12:35:46;;;;;;;5.13;2.87;;;;;;;;;;5049040;28;20472;-75
2023/10/26 12:38:13;;;;;;;2.43;2.10;;;;;;;;;;5048918;28;20939;-76
2023/10/26 12:40:40;;;;;;;2.50;2.03;;;;;;;;;;5048704;28;20451;-75
2023/10/26 12:43:09;;;;;;;1.77;1.60;;;;;;;;;;5049026;28;20463;-75
2023/10/26 12:45:36;;;;;;;7.30;3.27;;;;;;;;;;5048472;28;20445;-75
2023/10/26 12:48:03;;;;;;;1.87;1.57;;;;;;;;;;5048432;28;20452;-75
2023/10/26 12:50:30;;;;;;;2.80;2.10;;;;;;;;;;5048548;28;20443;-75
2023/10/26 12:52:58;;;;;;;2.60;1.73;;;;;;;;;;5048756;28;20982;-75
2023/10/26 12:55:25;;;;;;;5.23;2.20;;;;;;;;;;5048944;28;20465;-77
2023/10/26 12:57:52;;;;;;;2.20;1.80;;;;;;;;;;5049022;28;20829;-77
2023/10/26 13:00:21;;;;;;;2.70;1.40;;;;;;;;;;5048733;27;20449;-77
2023/10/26 13:02:48;;;;;;;2.90;1.97;;;;;;;;;;5048918;28;20465;-77
2023/10/26 13:05:15;;;;;;;4.40;1.93;;;;;;;;;;5049420;28;20468;-76
2023/10/26 13:07:42;;;;;;;2.47;1.70;;;;;;;;;;5052811;27;20501;-77
2023/10/26 13:10:10;;;;;;;2.23;1.40;;;;;;;;;;5053041;27;20789;-77
2023/10/26 13:12:38;;;;;;;2.10;1.90;;;;;;;;;;5053222;28;20488;-77
2023/10/26 13:15:06;;;;;;;2.63;1.77;;;;;;;;;;5053130;28;20457;-77
2023/10/26 13:17:35;;;;;;;1.63;1.50;;;;;;;;;;5052771;28;20544;-76
2023/10/26 13:20:03;;;;;;;2.30;1.60;;;;;;;;;;5052485;28;20461;-77
2023/10/26 13:22:30;;;;;;;3.23;2.70;;;;;;;;;;5052302;28;20542;-77
2023/10/26 13:24:57;;;;;;;2.60;1.30;;;;;;;;;;5052474;28;20512;-77
2023/10/26 13:27:25;;;;;;;3.10;1.63;;;;;;;;;;5052636;28;20891;-77
2023/10/26 13:29:52;;;;;;;4.37;1.70;;;;;;;;;;5052246;27;20444;-77
2023/10/26 13:32:19;;;;;;;2.13;1.93;;;;;;;;;;5105107;27;20483;-77
2023/10/26 13:34:48;;;;;;;2.40;1.93;;;;;;;;;;5052536;28;20973;-77
2023/10/26 13:37:15;;;;;;;1.70;1.60;;;;;;;;;;5052799;28;20956;-77
2023/10/26 13:39:42;;;;;;;1.70;1.50;;;;;;;;;;5052001;28;20464;-77
2023/10/26 13:42:09;;;;;;;2.50;1.60;;;;;;;;;;5051861;28;20468;-77
2023/10/26 13:44:36;;;;;;;3.57;2.07;;;;;;;;;;5051635;28;20457;-77
2023/10/26 13:47:04;;;;;;;2.23;2.00;;;;;;;;;;5052053;28;20918;-76
2023/10/26 13:49:31;;;;;;;3.30;2.23;;;;;;;;;;5052230;28;20457;-77
2023/10/26 13:51:59;;;;;;;2.33;1.97;;;;;;;;;;5052618;28;20481;-77
2023/10/26 13:54:26;;;;;;;2.90;2.10;;;;;;;;;;5052236;28;20500;-77
2023/10/26 13:56:54;;;;;;;4.37;2.60;;;;;;;;;;5052589;28;20452;-77
2023/10/26 13:59:21;;;;;;;2.47;2.23;;;;;;;;;;5051602;28;20621;-76
2023/10/26 14:01:48;;;;;;;2.87;2.37;;;;;;;;;;5051676;28;20893;-77
2023/10/26 14:04:15;;;;;;;2.80;2.40;;;;;;;;;;5052669;28;20452;-77
2023/10/26 14:06:42;;;;;;;4.10;2.47;;;;;;;;;;5051839;28;20460;-77
2023/10/26 14:09:11;;;;;;;2.67;2.47;;;;;;;;;;5051765;28;20463;-77
2023/10/26 14:11:38;;;;;;;7.73;5.63;;;;;;;;;;5051674;28;20504;-77
2023/10/26 14:14:05;;;;;;;7.27;4.40;;;;;;;;;;5052129;28;20612;-77
2023/10/26 14:16:32;;;;;;;7.13;5.73;;;;;;;;;;5051536;28;20484;-77
2023/10/26 14:19:03;;;;;;;5.63;2.73;;;;;;;;;;5050920;28;20464;-77
2023/10/26 14:21:30;;;;;;;3.27;2.97;;;;;;;;;;5049521;28;20990;-76
2023/10/26 14:23:57;;;;;;;4.30;3.20;;;;;;;;;;5050402;28;20780;-77
2023/10/26 14:26:26;;;;;;;3.60;2.57;;;;;;;;;;5049726;28;20903;-77
2023/10/26 14:28:53;;;;;;;3.17;2.87;;;;;;;;;;5050434;28;20798;-77
2023/10/26 14:31:20;;;;;;;4.07;3.67;;;;;;;;;;5050346;28;21008;-77
2023/10/26 14:33:49;;;;;;;4.70;3.77;;;;;;;;;;5050306;28;20493;-77
2023/10/26 14:36:16;;;;;;;7.37;5.80;;;;;;;;;;5050420;28;20543;-76
2023/10/26 14:38:43;;;;;;;10.90;7.27;;;;;;;;;;5050321;28;20918;-77
2023/10/26 14:41:10;;;;;;;7.77;5.50;;;;;;;;;;5051287;27;20576;-78
2023/10/26 14:43:39;;;;;;;9.80;6.23;;;;;;;;;;5051210;28;20449;-77
2023/10/26 14:46:08;;;;;;;7.90;5.77;;;;;;;;;;5049914;27;20457;-77
2023/10/26 14:48:36;;;;;;;9.17;5.27;;;;;;;;;;5050315;28;20453;-76
2023/10/26 14:51:04;;;;;;;6.93;5.70;;;;;;;;;;5050702;28;20477;-77
2023/10/26 14:53:32;;;;;;;8.03;5.47;;;;;;;;;;5050081;28;20541;-76